sensor_id;sensor_type;location;lat;lon;timestamp;temperature;humidity
76291;DHT22;65100;46.884;17.410;2023-03-14T00:00:08;12.02;57.43
76291;DHT22;65100;46.884;17.410;2023-03-14T00:02:35;12.02;57.66
76291;DHT22;65100;46.884;17.410;2023-03-14T00:05:00;12.04;57.51
76291;DHT22;65100;46.884;17.410;2023-03-14T00:07:32;12.04;58.22
76291;DHT22;65100;46.884;17.410;2023-03-14T00:09:59;11.96;58.66
76291;DHT22;65100;46.884;17.410;2023-03-14T00:12:24;11.92;58.94
76291;DHT22;65100;46.884;17.410;2023-03-14T00:14:50;11.78;58.27
76291;DHT22;65100;46.884;17.410;2023-03-14T00:17:15;11.87;57.65
76291;DHT22;65100;46.884;17.410;2023-03-14T00:19:41;11.96;56.92
76291;DHT22;65100;46.884;17.410;2023-03-14T00:22:06;12.12;56.18
76291;DHT22;65100;46.884;17.410;2023-03-14T00:24:32;12.32;56.64
76291;DHT22;65100;46.884;17.410;2023-03-14T00:26:57;12.26;57.64
76291;DHT22;65100;46.884;17.410;2023-03-14T00:29:22;12.12;57.27
76291;DHT22;65100;46.884;17.410;2023-03-14T00:31:48;12.14;58.11
76291;DHT22;65100;46.884;17.410;2023-03-14T00:34:13;11.93;57.53
76291;DHT22;65100;46.884;17.410;2023-03-14T00:36:39;11.99;58.03
76291;DHT22;65100;46.884;17.410;2023-03-14T00:39:04;11.97;57.92
76291;DHT22;65100;46.884;17.410;2023-03-14T00:41:30;11.83;58.69
76291;DHT22;65100;46.884;17.410;2023-03-14T00:43:55;11.70;58.76
76291;DHT22;65100;46.884;17.410;2023-03-14T00:46:21;11.82;57.69
76291;DHT22;65100;46.884;17.410;2023-03-14T00:48:46;11.83;58.38
76291;DHT22;65100;46.884;17.410;2023-03-14T00:51:12;11.87;58.96
76291;DHT22;65100;46.884;17.410;2023-03-14T00:53:40;11.87;58.97
76291;DHT22;65100;46.884;17.410;2023-03-14T00:56:09;11.93;55.73
76291;DHT22;65100;46.884;17.410;2023-03-14T00:58:34;12.26;54.49
76291;DHT22;65100;46.884;17.410;2023-03-14T01:01:09;12.41;53.48
76291;DHT22;65100;46.884;17.410;2023-03-14T01:03:34;12.44;56.96
76291;DHT22;65100;46.884;17.410;2023-03-14T01:06:27;12.04;57.28
76291;DHT22;65100;46.884;17.410;2023-03-14T01:08:53;11.97;57.81
76291;DHT22;65100;46.884;17.410;2023-03-14T01:13:48;11.86;59.35
76291;DHT22;65100;46.884;17.410;2023-03-14T01:16:14;11.76;58.90
76291;DHT22;65100;46.884;17.410;2023-03-14T01:18:41;11.70;58.06
76291;DHT22;65100;46.884;17.410;2023-03-14T01:21:20;11.66;58.48
76291;DHT22;65100;46.884;17.410;2023-03-14T01:23:47;11.68;59.26
76291;DHT22;65100;46.884;17.410;2023-03-14T01:26:15;11.68;60.28
76291;DHT22;65100;46.884;17.410;2023-03-14T01:28:41;11.52;59.64
76291;DHT22;65100;46.884;17.410;2023-03-14T01:31:08;11.51;59.80
76291;DHT22;65100;46.884;17.410;2023-03-14T01:33:35;11.56;59.24
76291;DHT22;65100;46.884;17.410;2023-03-14T01:36:01;11.55;59.69
76291;DHT22;65100;46.884;17.410;2023-03-14T01:38:31;11.66;58.66
76291;DHT22;65100;46.884;17.410;2023-03-14T01:40:57;11.68;57.89
76291;DHT22;65100;46.884;17.410;2023-03-14T01:43:23;11.61;58.58
76291;DHT22;65100;46.884;17.410;2023-03-14T01:51:31;11.69;58.00
76291;DHT22;65100;46.884;17.410;2023-03-14T01:54:18;11.68;57.09
76291;DHT22;65100;46.884;17.410;2023-03-14T01:56:52;11.76;58.42
76291;DHT22;65100;46.884;17.410;2023-03-14T01:59:19;11.72;57.96
76291;DHT22;65100;46.884;17.410;2023-03-14T02:01:46;11.66;58.01
76291;DHT22;65100;46.884;17.410;2023-03-14T02:04:14;11.58;57.62
76291;DHT22;65100;46.884;17.410;2023-03-14T02:06:48;11.62;57.42
76291;DHT22;65100;46.884;17.410;2023-03-14T02:09:15;11.66;58.57
76291;DHT22;65100;46.884;17.410;2023-03-14T02:11:41;11.69;57.57
76291;DHT22;65100;46.884;17.410;2023-03-14T02:14:10;11.80;57.96
76291;DHT22;65100;46.884;17.410;2023-03-14T02:16:39;11.75;57.65
76291;DHT22;65100;46.884;17.410;2023-03-14T02:19:05;11.75;58.00
76291;DHT22;65100;46.884;17.410;2023-03-14T02:21:46;11.59;57.99
76291;DHT22;65100;46.884;17.410;2023-03-14T02:24:17;11.61;59.23
76291;DHT22;65100;46.884;17.410;2023-03-14T02:29:30;11.58;58.89
76291;DHT22;65100;46.884;17.410;2023-03-14T02:31:57;11.51;58.45
76291;DHT22;65100;46.884;17.410;2023-03-14T02:34:23;11.56;58.75
76291;DHT22;65100;46.884;17.410;2023-03-14T02:36:49;11.51;58.03
76291;DHT22;65100;46.884;17.410;2023-03-14T02:39:21;11.45;58.16
76291;DHT22;65100;46.884;17.410;2023-03-14T02:41:49;11.40;58.29
76291;DHT22;65100;46.884;17.410;2023-03-14T02:44:14;11.42;59.54
76291;DHT22;65100;46.884;17.410;2023-03-14T02:46:40;11.28;58.47
76291;DHT22;65100;46.884;17.410;2023-03-14T02:49:10;11.32;59.77
76291;DHT22;65100;46.884;17.410;2023-03-14T02:51:37;11.36;59.58
76291;DHT22;65100;46.884;17.410;2023-03-14T02:54:05;11.34;59.28
76291;DHT22;65100;46.884;17.410;2023-03-14T02:56:30;11.25;60.14
76291;DHT22;65100;46.884;17.410;2023-03-14T02:58:56;11.32;59.52
76291;DHT22;65100;46.884;17.410;2023-03-14T03:01:23;11.28;59.20
76291;DHT22;65100;46.884;17.410;2023-03-14T03:03:48;11.39;59.50
76291;DHT22;65100;46.884;17.410;2023-03-14T03:06:15;11.39;58.66
76291;DHT22;65100;46.884;17.410;2023-03-14T03:08:40;11.42;57.89
76291;DHT22;65100;46.884;17.410;2023-03-14T03:11:06;11.52;58.18
76291;DHT22;65100;46.884;17.410;2023-03-14T03:13:32;11.62;57.82
76291;DHT22;65100;46.884;17.410;2023-03-14T03:15:57;11.59;57.05
76291;DHT22;65100;46.884;17.410;2023-03-14T03:18:22;11.69;57.36
76291;DHT22;65100;46.884;17.410;2023-03-14T03:20:48;11.58;58.30
76291;DHT22;65100;46.884;17.410;2023-03-14T03:23:13;11.42;56.97
76291;DHT22;65100;46.884;17.410;2023-03-14T03:25:39;11.40;57.71
76291;DHT22;65100;46.884;17.410;2023-03-14T03:28:05;11.62;58.77
76291;DHT22;65100;46.884;17.410;2023-03-14T03:30:36;11.51;58.00
76291;DHT22;65100;46.884;17.410;2023-03-14T03:33:02;11.58;58.16
76291;DHT22;65100;46.884;17.410;2023-03-14T03:35:27;11.58;58.25
76291;DHT22;65100;46.884;17.410;2023-03-14T03:37:53;11.63;57.91
76291;DHT22;65100;46.884;17.410;2023-03-14T03:40:18;11.69;57.46
76291;DHT22;65100;46.884;17.410;2023-03-14T03:42:44;11.72;58.43
76291;DHT22;65100;46.884;17.410;2023-03-14T03:45:09;11.51;57.17
76291;DHT22;65100;46.884;17.410;2023-03-14T03:47:35;11.40;57.78
76291;DHT22;65100;46.884;17.410;2023-03-14T03:50:00;11.62;58.20
76291;DHT22;65100;46.884;17.410;2023-03-14T03:52:26;11.75;58.38
76291;DHT22;65100;46.884;17.410;2023-03-14T03:54:51;11.76;56.91
76291;DHT22;65100;46.884;17.410;2023-03-14T03:57:17;11.86;56.59
76291;DHT22;65100;46.884;17.410;2023-03-14T03:59:42;11.85;56.73
76291;DHT22;65100;46.884;17.410;2023-03-14T04:02:08;11.92;56.37
76291;DHT22;65100;46.884;17.410;2023-03-14T04:04:33;11.92;57.10
76291;DHT22;65100;46.884;17.410;2023-03-14T04:06:58;11.89;56.92
76291;DHT22;65100;46.884;17.410;2023-03-14T04:09:24;11.96;57.08
76291;DHT22;65100;46.884;17.410;2023-03-14T04:11:49;11.96;56.90
76291;DHT22;65100;46.884;17.410;2023-03-14T04:14:15;11.90;57.32
76291;DHT22;65100;46.884;17.410;2023-03-14T04:16:41;11.89;56.88
76291;DHT22;65100;46.884;17.410;2023-03-14T04:19:06;11.79;57.94
76291;DHT22;65100;46.884;17.410;2023-03-14T04:21:32;11.72;57.13
76291;DHT22;65100;46.884;17.410;2023-03-14T04:23:57;11.83;57.66
76291;DHT22;65100;46.884;17.410;2023-03-14T04:26:23;11.79;57.09
76291;DHT22;65100;46.884;17.410;2023-03-14T04:28:48;11.76;58.97
76291;DHT22;65100;46.884;17.410;2023-03-14T04:31:16;11.62;57.69
76291;DHT22;65100;46.884;17.410;2023-03-14T04:33:42;11.75;59.36
76291;DHT22;65100;46.884;17.410;2023-03-14T04:36:08;11.80;58.38
76291;DHT22;65100;46.884;17.410;2023-03-14T04:38:34;11.87;57.10
76291;DHT22;65100;46.884;17.410;2023-03-14T04:40:59;11.94;57.41
76291;DHT22;65100;46.884;17.410;2023-03-14T04:43:26;11.97;58.08
76291;DHT22;65100;46.884;17.410;2023-03-14T04:45:53;11.92;56.64
76291;DHT22;65100;46.884;17.410;2023-03-14T04:48:19;11.96;58.28
76291;DHT22;65100;46.884;17.410;2023-03-14T04:50:46;12.07;56.53
76291;DHT22;65100;46.884;17.410;2023-03-14T04:53:12;12.12;58.17
76291;DHT22;65100;46.884;17.410;2023-03-14T04:55:38;12.06;58.55
76291;DHT22;65100;46.884;17.410;2023-03-14T04:58:03;12.00;57.46
76291;DHT22;65100;46.884;17.410;2023-03-14T05:00:29;12.04;58.52
76291;DHT22;65100;46.884;17.410;2023-03-14T05:02:54;11.96;56.91
76291;DHT22;65100;46.884;17.410;2023-03-14T05:05:20;12.06;58.40
76291;DHT22;65100;46.884;17.410;2023-03-14T05:07:45;12.02;57.33
76291;DHT22;65100;46.884;17.410;2023-03-14T05:10:11;12.06;57.75
76291;DHT22;65100;46.884;17.410;2023-03-14T05:12:37;12.09;59.11
76291;DHT22;65100;46.884;17.410;2023-03-14T05:15:02;12.06;58.48
76291;DHT22;65100;46.884;17.410;2023-03-14T05:17:29;12.13;58.30
76291;DHT22;65100;46.884;17.410;2023-03-14T05:19:55;12.09;59.28
76291;DHT22;65100;46.884;17.410;2023-03-14T05:22:20;12.10;59.88
76291;DHT22;65100;46.884;17.410;2023-03-14T05:24:46;12.37;60.63
76291;DHT22;65100;46.884;17.410;2023-03-14T05:27:11;12.65;59.46
76291;DHT22;65100;46.884;17.410;2023-03-14T05:29:37;12.94;58.51
76291;DHT22;65100;46.884;17.410;2023-03-14T05:32:02;13.18;58.33
76291;DHT22;65100;46.884;17.410;2023-03-14T05:34:28;13.36;58.38
76291;DHT22;65100;46.884;17.410;2023-03-14T05:36:53;13.55;56.44
76291;DHT22;65100;46.884;17.410;2023-03-14T05:39:20;13.67;55.69
76291;DHT22;65100;46.884;17.410;2023-03-14T05:41:45;13.72;56.42
76291;DHT22;65100;46.884;17.410;2023-03-14T05:44:10;13.70;57.30
76291;DHT22;65100;46.884;17.410;2023-03-14T05:46:36;13.75;55.93
76291;DHT22;65100;46.884;17.410;2023-03-14T05:49:01;13.93;55.97
76291;DHT22;65100;46.884;17.410;2023-03-14T05:51:47;13.98;55.42
76291;DHT22;65100;46.884;17.410;2023-03-14T05:54:13;13.93;55.77
76291;DHT22;65100;46.884;17.410;2023-03-14T05:56:38;13.96;55.51
76291;DHT22;65100;46.884;17.410;2023-03-14T05:59:04;13.96;55.44
76291;DHT22;65100;46.884;17.410;2023-03-14T06:01:29;14.09;56.55
76291;DHT22;65100;46.884;17.410;2023-03-14T06:04:16;14.08;55.53
76291;DHT22;65100;46.884;17.410;2023-03-14T06:06:41;14.12;56.70
76291;DHT22;65100;46.884;17.410;2023-03-14T06:09:07;14.16;56.58
76291;DHT22;65100;46.884;17.410;2023-03-14T06:11:32;14.26;55.47
76291;DHT22;65100;46.884;17.410;2023-03-14T06:13:58;14.44;55.42
76291;DHT22;65100;46.884;17.410;2023-03-14T06:16:23;14.61;54.74
76291;DHT22;65100;46.884;17.410;2023-03-14T06:18:48;14.75;55.61
76291;DHT22;65100;46.884;17.410;2023-03-14T06:21:14;14.99;54.27
76291;DHT22;65100;46.884;17.410;2023-03-14T06:23:40;15.08;53.55
76291;DHT22;65100;46.884;17.410;2023-03-14T06:26:06;15.14;53.52
76291;DHT22;65100;46.884;17.410;2023-03-14T06:28:31;15.15;54.32
76291;DHT22;65100;46.884;17.410;2023-03-14T06:30:58;15.32;53.27
76291;DHT22;65100;46.884;17.410;2023-03-14T06:33:24;15.36;53.77
76291;DHT22;65100;46.884;17.410;2023-03-14T06:35:49;15.31;54.00
76291;DHT22;65100;46.884;17.410;2023-03-14T06:38:15;15.38;54.00
76291;DHT22;65100;46.884;17.410;2023-03-14T06:40:40;15.24;53.21
76291;DHT22;65100;46.884;17.410;2023-03-14T06:43:06;15.14;54.35
76291;DHT22;65100;46.884;17.410;2023-03-14T06:45:31;15.12;54.31
76291;DHT22;65100;46.884;17.410;2023-03-14T06:47:57;15.27;53.85
76291;DHT22;65100;46.884;17.410;2023-03-14T06:50:22;15.12;52.91
76291;DHT22;65100;46.884;17.410;2023-03-14T06:52:48;14.84;54.60
76291;DHT22;65100;46.884;17.410;2023-03-14T06:55:16;15.01;54.22
76291;DHT22;65100;46.884;17.410;2023-03-14T06:57:43;15.15;53.85
76291;DHT22;65100;46.884;17.410;2023-03-14T07:00:10;15.12;53.41
76291;DHT22;65100;46.884;17.410;2023-03-14T07:02:36;15.28;53.42
76291;DHT22;65100;46.884;17.410;2023-03-14T07:05:02;15.34;53.72
76291;DHT22;65100;46.884;17.410;2023-03-14T07:07:28;15.46;52.03
76291;DHT22;65100;46.884;17.410;2023-03-14T07:09:53;15.49;51.94
76291;DHT22;65100;46.884;17.410;2023-03-14T07:12:19;15.46;51.93
76291;DHT22;65100;46.884;17.410;2023-03-14T07:14:44;15.65;53.17
76291;DHT22;65100;46.884;17.410;2023-03-14T07:17:10;15.76;52.03
76291;DHT22;65100;46.884;17.410;2023-03-14T07:19:35;15.97;51.43
76291;DHT22;65100;46.884;17.410;2023-03-14T07:22:01;15.99;52.30
76291;DHT22;65100;46.884;17.410;2023-03-14T07:24:47;16.24;51.65
76291;DHT22;65100;46.884;17.410;2023-03-14T07:27:13;16.24;49.57
76291;DHT22;65100;46.884;17.410;2023-03-14T07:29:38;16.59;49.01
76291;DHT22;65100;46.884;17.410;2023-03-14T07:32:04;16.78;49.34
76291;DHT22;65100;46.884;17.410;2023-03-14T07:34:29;16.94;48.79
76291;DHT22;65100;46.884;17.410;2023-03-14T07:36:55;16.73;48.60
76291;DHT22;65100;46.884;17.410;2023-03-14T07:39:20;16.98;48.66
76291;DHT22;65100;46.884;17.410;2023-03-14T07:41:45;17.17;47.22
76291;DHT22;65100;46.884;17.410;2023-03-14T07:44:11;17.59;48.36
76291;DHT22;65100;46.884;17.410;2023-03-14T07:46:36;17.73;46.93
76291;DHT22;65100;46.884;17.410;2023-03-14T07:49:02;17.62;46.99
76291;DHT22;65100;46.884;17.410;2023-03-14T07:51:27;17.52;46.99
76291;DHT22;65100;46.884;17.410;2023-03-14T07:53:53;17.75;46.14
76291;DHT22;65100;46.884;17.410;2023-03-14T07:56:18;18.06;45.65
76291;DHT22;65100;46.884;17.410;2023-03-14T07:58:44;17.99;45.35
76291;DHT22;65100;46.884;17.410;2023-03-14T08:01:09;17.72;45.73
76291;DHT22;65100;46.884;17.410;2023-03-14T08:03:35;17.66;46.12
76291;DHT22;65100;46.884;17.410;2023-03-14T08:06:00;18.07;48.00
76291;DHT22;65100;46.884;17.410;2023-03-14T08:08:26;18.30;46.15
76291;DHT22;65100;46.884;17.410;2023-03-14T08:10:51;18.27;44.73
76291;DHT22;65100;46.884;17.410;2023-03-14T08:13:17;18.36;46.11
76291;DHT22;65100;46.884;17.410;2023-03-14T08:15:42;17.95;44.69
76291;DHT22;65100;46.884;17.410;2023-03-14T08:18:08;17.99;46.78
76291;DHT22;65100;46.884;17.410;2023-03-14T08:20:33;18.03;45.35
76291;DHT22;65100;46.884;17.410;2023-03-14T08:23:01;18.19;44.80
76291;DHT22;65100;46.884;17.410;2023-03-14T08:25:28;18.44;45.79
76291;DHT22;65100;46.884;17.410;2023-03-14T08:27:54;18.47;44.96
76291;DHT22;65100;46.884;17.410;2023-03-14T08:30:21;18.70;44.41
76291;DHT22;65100;46.884;17.410;2023-03-14T08:32:46;18.93;43.81
76291;DHT22;65100;46.884;17.410;2023-03-14T08:35:12;18.84;44.29
76291;DHT22;65100;46.884;17.410;2023-03-14T08:37:38;19.21;43.99
76291;DHT22;65100;46.884;17.410;2023-03-14T08:40:05;18.87;44.78
76291;DHT22;65100;46.884;17.410;2023-03-14T08:42:35;18.56;44.01
76291;DHT22;65100;46.884;17.410;2023-03-14T08:45:01;18.43;43.77
76291;DHT22;65100;46.884;17.410;2023-03-14T08:47:27;18.47;44.91
76291;DHT22;65100;46.884;17.410;2023-03-14T08:49:52;18.64;46.88
76291;DHT22;65100;46.884;17.410;2023-03-14T08:52:18;18.44;43.30
76291;DHT22;65100;46.884;17.410;2023-03-14T08:54:44;18.49;46.15
76291;DHT22;65100;46.884;17.410;2023-03-14T08:57:09;18.46;44.05
76291;DHT22;65100;46.884;17.410;2023-03-14T08:59:35;18.87;45.60
76291;DHT22;65100;46.884;17.410;2023-03-14T09:02:00;18.60;43.11
76291;DHT22;65100;46.884;17.410;2023-03-14T09:04:29;18.64;43.28
76291;DHT22;65100;46.884;17.410;2023-03-14T09:06:54;18.78;45.55
76291;DHT22;65100;46.884;17.410;2023-03-14T09:09:20;18.80;42.96
76291;DHT22;65100;46.884;17.410;2023-03-14T09:11:45;18.90;44.40
76291;DHT22;65100;46.884;17.410;2023-03-14T09:14:11;19.15;42.83
76291;DHT22;65100;46.884;17.410;2023-03-14T09:16:36;19.47;41.19
76291;DHT22;65100;46.884;17.410;2023-03-14T09:19:02;20.50;39.68
76291;DHT22;65100;46.884;17.410;2023-03-14T09:21:28;21.79;40.02
76291;DHT22;65100;46.884;17.410;2023-03-14T09:23:53;22.03;38.90
76291;DHT22;65100;46.884;17.410;2023-03-14T09:26:19;22.23;35.97
76291;DHT22;65100;46.884;17.410;2023-03-14T09:28:44;22.10;37.52
76291;DHT22;65100;46.884;17.410;2023-03-14T09:31:11;22.60;36.99
76291;DHT22;65100;46.884;17.410;2023-03-14T09:33:37;22.46;37.91
76291;DHT22;65100;46.884;17.410;2023-03-14T09:36:04;21.81;38.04
76291;DHT22;65100;46.884;17.410;2023-03-14T09:38:29;21.18;37.58
76291;DHT22;65100;46.884;17.410;2023-03-14T09:40:57;21.12;37.07
76291;DHT22;65100;46.884;17.410;2023-03-14T09:43:24;21.14;38.34
76291;DHT22;65100;46.884;17.410;2023-03-14T09:45:52;20.70;38.04
76291;DHT22;65100;46.884;17.410;2023-03-14T09:48:22;20.13;40.25
76291;DHT22;65100;46.884;17.410;2023-03-14T09:50:51;19.93;39.33
76291;DHT22;65100;46.884;17.410;2023-03-14T09:53:21;19.99;40.70
76291;DHT22;65100;46.884;17.410;2023-03-14T09:55:50;20.10;40.95
76291;DHT22;65100;46.884;17.410;2023-03-14T09:58:21;20.02;42.32
76291;DHT22;65100;46.884;17.410;2023-03-14T10:00:49;20.02;42.19
76291;DHT22;65100;46.884;17.410;2023-03-14T10:03:33;20.15;42.53
76291;DHT22;65100;46.884;17.410;2023-03-14T10:05:59;20.09;37.69
76291;DHT22;65100;46.884;17.410;2023-03-14T10:08:25;19.89;37.27
76291;DHT22;65100;46.884;17.410;2023-03-14T10:10:51;19.85;39.55
76291;DHT22;65100;46.884;17.410;2023-03-14T10:13:19;19.96;39.69
76291;DHT22;65100;46.884;17.410;2023-03-14T10:18:22;19.86;37.61
76291;DHT22;65100;46.884;17.410;2023-03-14T10:20:51;19.85;39.46
76291;DHT22;65100;46.884;17.410;2023-03-14T10:23:31;19.62;37.44
76291;DHT22;65100;46.884;17.410;2023-03-14T10:26:13;19.62;39.87
76291;DHT22;65100;46.884;17.410;2023-03-14T10:28:47;19.52;37.71
76291;DHT22;65100;46.884;17.410;2023-03-14T10:31:13;19.66;39.41
76291;DHT22;65100;46.884;17.410;2023-03-14T10:33:40;19.63;36.89
76291;DHT22;65100;46.884;17.410;2023-03-14T10:36:20;19.96;37.13
76291;DHT22;65100;46.884;17.410;2023-03-14T10:38:46;20.19;37.82
76291;DHT22;65100;46.884;17.410;2023-03-14T10:41:32;20.33;38.31
76291;DHT22;65100;46.884;17.410;2023-03-14T10:43:59;20.34;37.32
76291;DHT22;65100;46.884;17.410;2023-03-14T10:46:29;20.46;35.60
76291;DHT22;65100;46.884;17.410;2023-03-14T10:48:55;20.51;39.04
76291;DHT22;65100;46.884;17.410;2023-03-14T10:51:28;20.37;36.09
76291;DHT22;65100;46.884;17.410;2023-03-14T10:56:27;20.61;36.88
76291;DHT22;65100;46.884;17.410;2023-03-14T10:58:58;20.58;36.33
76291;DHT22;65100;46.884;17.410;2023-03-14T11:07:10;20.40;36.92
76291;DHT22;65100;46.884;17.410;2023-03-14T11:12:36;20.61;36.47
76291;DHT22;65100;46.884;17.410;2023-03-14T11:15:11;20.53;36.13
76291;DHT22;65100;46.884;17.410;2023-03-14T11:18:13;20.77;39.60
76291;DHT22;65100;46.884;17.410;2023-03-14T11:20:59;20.80;37.20
76291;DHT22;65100;46.884;17.410;2023-03-14T11:23:36;20.71;35.87
76291;DHT22;65100;46.884;17.410;2023-03-14T11:28:37;20.76;35.69
76291;DHT22;65100;46.884;17.410;2023-03-14T11:31:25;20.69;36.65
76291;DHT22;65100;46.884;17.410;2023-03-14T11:34:14;20.80;35.32
76291;DHT22;65100;46.884;17.410;2023-03-14T11:36:59;21.00;36.35
76291;DHT22;65100;46.884;17.410;2023-03-14T11:39:31;20.85;35.36
76291;DHT22;65100;46.884;17.410;2023-03-14T11:42:00;21.00;35.35
76291;DHT22;65100;46.884;17.410;2023-03-14T11:44:37;21.12;35.39
76291;DHT22;65100;46.884;17.410;2023-03-14T11:49:51;21.44;35.45
76291;DHT22;65100;46.884;17.410;2023-03-14T11:54:58;21.68;34.67
76291;DHT22;65100;46.884;17.410;2023-03-14T11:57:25;21.85;34.00
76291;DHT22;65100;46.884;17.410;2023-03-14T12:10:54;21.93;35.56
76291;DHT22;65100;46.884;17.410;2023-03-14T12:13:22;22.00;34.89
76291;DHT22;65100;46.884;17.410;2023-03-14T12:15:55;21.98;34.99
76291;DHT22;65100;46.884;17.410;2023-03-14T12:18:33;21.99;33.08
76291;DHT22;65100;46.884;17.410;2023-03-14T12:21:01;21.85;36.10
76291;DHT22;65100;46.884;17.410;2023-03-14T12:29:23;21.27;34.40
76291;DHT22;65100;46.884;17.410;2023-03-14T12:37:05;20.91;35.56
76291;DHT22;65100;46.884;17.410;2023-03-14T12:42:21;20.81;36.63
76291;DHT22;65100;46.884;17.410;2023-03-14T12:45:36;20.71;35.10
76291;DHT22;65100;46.884;17.410;2023-03-14T12:48:09;20.74;35.18
76291;DHT22;65100;46.884;17.410;2023-03-14T12:50:44;20.63;34.87
76291;DHT22;65100;46.884;17.410;2023-03-14T12:55:46;20.44;36.03
76291;DHT22;65100;46.884;17.410;2023-03-14T12:58:37;20.43;36.25
76291;DHT22;65100;46.884;17.410;2023-03-14T13:01:03;20.29;35.42
76291;DHT22;65100;46.884;17.410;2023-03-14T13:03:43;20.25;36.41
76291;DHT22;65100;46.884;17.410;2023-03-14T13:06:10;20.34;34.89
76291;DHT22;65100;46.884;17.410;2023-03-14T13:08:41;20.37;35.00
76291;DHT22;65100;46.884;17.410;2023-03-14T13:11:12;20.23;35.39
76291;DHT22;65100;46.884;17.410;2023-03-14T13:13:48;20.22;36.46
76291;DHT22;65100;46.884;17.410;2023-03-14T13:16:20;20.06;38.20
76291;DHT22;65100;46.884;17.410;2023-03-14T13:19:02;20.03;36.38
76291;DHT22;65100;46.884;17.410;2023-03-14T13:21:34;19.97;36.16
76291;DHT22;65100;46.884;17.410;2023-03-14T13:26:46;19.72;37.57
76291;DHT22;65100;46.884;17.410;2023-03-14T13:29:23;19.69;38.37
76291;DHT22;65100;46.884;17.410;2023-03-14T13:31:56;19.57;36.04
76291;DHT22;65100;46.884;17.410;2023-03-14T13:34:26;19.48;36.46
76291;DHT22;65100;46.884;17.410;2023-03-14T13:36:52;19.49;40.02
76291;DHT22;65100;46.884;17.410;2023-03-14T13:39:20;19.48;38.30
76291;DHT22;65100;46.884;17.410;2023-03-14T13:41:57;19.49;37.73
76291;DHT22;65100;46.884;17.410;2023-03-14T13:44:34;19.39;37.27
76291;DHT22;65100;46.884;17.410;2023-03-14T13:47:01;19.32;40.60
76291;DHT22;65100;46.884;17.410;2023-03-14T13:49:29;19.27;41.81
76291;DHT22;65100;46.884;17.410;2023-03-14T13:51:56;19.21;43.65
76291;DHT22;65100;46.884;17.410;2023-03-14T13:54:22;18.94;44.15
76291;DHT22;65100;46.884;17.410;2023-03-14T13:56:49;18.94;44.01
76291;DHT22;65100;46.884;17.410;2023-03-14T13:59:26;18.88;43.15
76291;DHT22;65100;46.884;17.410;2023-03-14T14:01:53;18.63;45.82
76291;DHT22;65100;46.884;17.410;2023-03-14T14:04:24;18.59;46.19
76291;DHT22;65100;46.884;17.410;2023-03-14T14:06:57;18.41;46.97
76291;DHT22;65100;46.884;17.410;2023-03-14T14:09:35;18.37;48.33
76291;DHT22;65100;46.884;17.410;2023-03-14T14:12:08;18.19;48.24
76291;DHT22;65100;46.884;17.410;2023-03-14T14:14:42;18.12;48.44
76291;DHT22;65100;46.884;17.410;2023-03-14T14:17:12;18.00;48.78
76291;DHT22;65100;46.884;17.410;2023-03-14T14:19:39;17.95;49.69
76291;DHT22;65100;46.884;17.410;2023-03-14T14:22:06;17.90;49.74
76291;DHT22;65100;46.884;17.410;2023-03-14T14:24:36;17.63;50.99
76291;DHT22;65100;46.884;17.410;2023-03-14T14:27:12;17.55;50.61
76291;DHT22;65100;46.884;17.410;2023-03-14T14:29:39;17.49;50.26
76291;DHT22;65100;46.884;17.410;2023-03-14T14:34:44;17.29;49.75
76291;DHT22;65100;46.884;17.410;2023-03-14T14:37:22;17.19;49.92
76291;DHT22;65100;46.884;17.410;2023-03-14T14:39:51;17.12;49.97
76291;DHT22;65100;46.884;17.410;2023-03-14T14:42:19;17.01;49.92
76291;DHT22;65100;46.884;17.410;2023-03-14T14:44:48;16.92;50.46
76291;DHT22;65100;46.884;17.410;2023-03-14T14:47:18;16.95;51.56
76291;DHT22;65100;46.884;17.410;2023-03-14T14:49:47;16.85;52.29
76291;DHT22;65100;46.884;17.410;2023-03-14T14:53:03;16.78;51.68
76291;DHT22;65100;46.884;17.410;2023-03-14T14:55:20;16.78;50.91
76291;DHT22;65100;46.884;17.410;2023-03-14T14:57:54;16.81;53.01
76291;DHT22;65100;46.884;17.410;2023-03-14T15:00:24;16.67;53.88
76291;DHT22;65100;46.884;17.410;2023-03-14T15:02:54;16.53;55.48
76291;DHT22;65100;46.884;17.410;2023-03-14T15:05:25;16.47;56.80
76291;DHT22;65100;46.884;17.410;2023-03-14T15:07:52;16.31;56.18
76291;DHT22;65100;46.884;17.410;2023-03-14T15:10:22;16.16;56.65
76291;DHT22;65100;46.884;17.410;2023-03-14T15:12:48;16.14;57.71
76291;DHT22;65100;46.884;17.410;2023-03-14T15:15:15;16.05;57.05
76291;DHT22;65100;46.884;17.410;2023-03-14T15:17:41;15.95;58.32
76291;DHT22;65100;46.884;17.410;2023-03-14T15:20:11;15.76;58.87
76291;DHT22;65100;46.884;17.410;2023-03-14T15:22:39;15.67;59.32
76291;DHT22;65100;46.884;17.410;2023-03-14T15:25:05;15.56;59.71
76291;DHT22;65100;46.884;17.410;2023-03-14T15:27:31;15.51;61.09
76291;DHT22;65100;46.884;17.410;2023-03-14T15:29:57;15.29;62.44
76291;DHT22;65100;46.884;17.410;2023-03-14T15:32:24;15.09;62.87
76291;DHT22;65100;46.884;17.410;2023-03-14T15:34:53;15.01;64.99
76291;DHT22;65100;46.884;17.410;2023-03-14T15:37:19;14.95;64.72
76291;DHT22;65100;46.884;17.410;2023-03-14T15:39:45;14.92;65.09
76291;DHT22;65100;46.884;17.410;2023-03-14T15:42:11;14.74;65.42
76291;DHT22;65100;46.884;17.410;2023-03-14T15:44:36;14.70;65.27
76291;DHT22;65100;46.884;17.410;2023-03-14T15:47:03;14.61;65.49
76291;DHT22;65100;46.884;17.410;2023-03-14T15:49:28;14.57;66.00
76291;DHT22;65100;46.884;17.410;2023-03-14T15:51:54;14.67;64.09
76291;DHT22;65100;46.884;17.410;2023-03-14T15:54:20;14.63;64.54
76291;DHT22;65100;46.884;17.410;2023-03-14T15:56:45;14.64;63.84
76291;DHT22;65100;46.884;17.410;2023-03-14T15:59:11;14.64;63.72
76291;DHT22;65100;46.884;17.410;2023-03-14T16:01:36;14.53;64.18
76291;DHT22;65100;46.884;17.410;2023-03-14T16:04:02;14.33;65.06
76291;DHT22;65100;46.884;17.410;2023-03-14T16:06:28;14.37;65.72
76291;DHT22;65100;46.884;17.410;2023-03-14T16:08:54;14.47;66.43
76291;DHT22;65100;46.884;17.410;2023-03-14T16:11:19;14.48;65.24
76291;DHT22;65100;46.884;17.410;2023-03-14T16:13:45;14.37;66.18
76291;DHT22;65100;46.884;17.410;2023-03-14T16:16:12;14.20;66.82
76291;DHT22;65100;46.884;17.410;2023-03-14T16:18:38;14.37;65.58
76291;DHT22;65100;46.884;17.410;2023-03-14T16:21:07;14.40;65.42
76291;DHT22;65100;46.884;17.410;2023-03-14T16:23:34;14.34;64.65
76291;DHT22;65100;46.884;17.410;2023-03-14T16:26:06;14.33;65.66